sensor_id;sensor_type;location;lat;lon;timestamp;temperature;humidity
51982;DHT22;37998;53.416;6.730;2022-07-29T00:00:40;16.20;99.90
51982;DHT22;37998;53.416;6.730;2022-07-29T00:03:06;16.20;99.90
51982;DHT22;37998;53.416;6.730;2022-07-29T00:05:32;16.20;99.90
51982;DHT22;37998;53.416;6.730;2022-07-29T00:07:57;16.20;99.90
51982;DHT22;37998;53.416;6.730;2022-07-29T00:10:23;16.20;99.90
51982;DHT22;37998;53.416;6.730;2022-07-29T00:12:48;16.30;99.90
51982;DHT22;37998;53.416;6.730;2022-07-29T00:15:14;16.20;99.90
51982;DHT22;37998;53.416;6.730;2022-07-29T00:17:40;16.30;99.90
51982;DHT22;37998;53.416;6.730;2022-07-29T00:20:06;16.30;99.90
51982;DHT22;37998;53.416;6.730;2022-07-29T00:22:32;16.30;99.90
51982;DHT22;37998;53.416;6.730;2022-07-29T00:24:57;16.40;99.90
51982;DHT22;37998;53.416;6.730;2022-07-29T00:27:23;16.30;99.90
51982;DHT22;37998;53.416;6.730;2022-07-29T00:29:49;16.30;99.90
51982;DHT22;37998;53.416;6.730;2022-07-29T00:32:15;16.30;99.90
51982;DHT22;37998;53.416;6.730;2022-07-29T00:34:40;16.40;99.90
51982;DHT22;37998;53.416;6.730;2022-07-29T00:37:25;16.40;99.90
51982;DHT22;37998;53.416;6.730;2022-07-29T00:39:50;16.30;99.90
51982;DHT22;37998;53.416;6.730;2022-07-29T00:42:16;16.30;99.90
51982;DHT22;37998;53.416;6.730;2022-07-29T00:44:42;16.30;99.90
51982;DHT22;37998;53.416;6.730;2022-07-29T00:47:10;16.30;99.90
51982;DHT22;37998;53.416;6.730;2022-07-29T00:49:36;16.30;99.90
51982;DHT22;37998;53.416;6.730;2022-07-29T00:52:04;16.30;99.90
51982;DHT22;37998;53.416;6.730;2022-07-29T00:54:30;16.30;99.90
51982;DHT22;37998;53.416;6.730;2022-07-29T00:56:59;16.30;99.90
51982;DHT22;37998;53.416;6.730;2022-07-29T00:59:26;16.30;99.90
51982;DHT22;37998;53.416;6.730;2022-07-29T01:01:53;16.30;99.90
51982;DHT22;37998;53.416;6.730;2022-07-29T01:04:20;16.30;99.90
51982;DHT22;37998;53.416;6.730;2022-07-29T01:06:47;16.30;99.90
51982;DHT22;37998;53.416;6.730;2022-07-29T01:09:14;16.30;99.90
51982;DHT22;37998;53.416;6.730;2022-07-29T01:11:41;16.30;99.90
51982;DHT22;37998;53.416;6.730;2022-07-29T01:14:08;16.30;99.90
51982;DHT22;37998;53.416;6.730;2022-07-29T01:16:51;16.30;99.90
51982;DHT22;37998;53.416;6.730;2022-07-29T01:22:25;16.30;99.90
51982;DHT22;37998;53.416;6.730;2022-07-29T01:25:26;16.30;99.90
51982;DHT22;37998;53.416;6.730;2022-07-29T01:30:22;16.20;99.90
51982;DHT22;37998;53.416;6.730;2022-07-29T01:32:55;16.20;99.90
51982;DHT22;37998;53.416;6.730;2022-07-29T01:35:26;16.30;99.90
51982;DHT22;37998;53.416;6.730;2022-07-29T01:40:36;16.30;99.90
51982;DHT22;37998;53.416;6.730;2022-07-29T01:43:09;16.20;99.90
51982;DHT22;37998;53.416;6.730;2022-07-29T01:45:48;16.20;99.90
51982;DHT22;37998;53.416;6.730;2022-07-29T01:48:18;16.20;99.90
51982;DHT22;37998;53.416;6.730;2022-07-29T01:51:14;16.20;99.90
51982;DHT22;37998;53.416;6.730;2022-07-29T01:54:04;16.30;99.90
51982;DHT22;37998;53.416;6.730;2022-07-29T01:56:32;16.20;99.90
51982;DHT22;37998;53.416;6.730;2022-07-29T01:59:01;16.20;99.90
51982;DHT22;37998;53.416;6.730;2022-07-29T02:01:31;16.20;99.90
51982;DHT22;37998;53.416;6.730;2022-07-29T02:03:59;16.20;99.90
51982;DHT22;37998;53.416;6.730;2022-07-29T02:06:27;16.10;99.90
51982;DHT22;37998;53.416;6.730;2022-07-29T02:08:55;16.20;99.90
51982;DHT22;37998;53.416;6.730;2022-07-29T02:11:22;16.10;99.90
51982;DHT22;37998;53.416;6.730;2022-07-29T02:13:48;16.20;99.90
51982;DHT22;37998;53.416;6.730;2022-07-29T02:16:15;16.30;99.90
51982;DHT22;37998;53.416;6.730;2022-07-29T02:18:45;16.20;99.90
51982;DHT22;37998;53.416;6.730;2022-07-29T02:21:13;16.20;99.90
51982;DHT22;37998;53.416;6.730;2022-07-29T02:23:44;16.20;99.90
51982;DHT22;37998;53.416;6.730;2022-07-29T02:26:11;16.20;99.90
51982;DHT22;37998;53.416;6.730;2022-07-29T02:28:39;16.20;99.90
51982;DHT22;37998;53.416;6.730;2022-07-29T02:31:06;16.20;99.90
51982;DHT22;37998;53.416;6.730;2022-07-29T02:33:33;16.20;99.90
51982;DHT22;37998;53.416;6.730;2022-07-29T02:35:59;16.20;99.90
51982;DHT22;37998;53.416;6.730;2022-07-29T02:38:27;16.20;99.90
51982;DHT22;37998;53.416;6.730;2022-07-29T02:41:16;16.10;99.90
51982;DHT22;37998;53.416;6.730;2022-07-29T02:43:45;16.10;99.90
51982;DHT22;37998;53.416;6.730;2022-07-29T02:46:15;16.10;99.90
51982;DHT22;37998;53.416;6.730;2022-07-29T02:48:50;16.10;99.90
51982;DHT22;37998;53.416;6.730;2022-07-29T02:51:27;16.10;99.90
51982;DHT22;37998;53.416;6.730;2022-07-29T02:53:56;16.10;99.90
51982;DHT22;37998;53.416;6.730;2022-07-29T02:56:26;16.10;99.90
51982;DHT22;37998;53.416;6.730;2022-07-29T02:58:58;16.10;99.90
51982;DHT22;37998;53.416;6.730;2022-07-29T03:01:31;16.10;99.90
51982;DHT22;37998;53.416;6.730;2022-07-29T03:04:01;16.10;99.90
51982;DHT22;37998;53.416;6.730;2022-07-29T03:06:29;16.10;99.90
51982;DHT22;37998;53.416;6.730;2022-07-29T03:08:57;16.10;99.90
51982;DHT22;37998;53.416;6.730;2022-07-29T03:11:24;16.10;99.90
51982;DHT22;37998;53.416;6.730;2022-07-29T03:13:50;16.10;99.90
51982;DHT22;37998;53.416;6.730;2022-07-29T03:16:19;16.10;99.90
51982;DHT22;37998;53.416;6.730;2022-07-29T03:18:45;16.10;99.90
51982;DHT22;37998;53.416;6.730;2022-07-29T03:21:10;16.10;99.90
51982;DHT22;37998;53.416;6.730;2022-07-29T03:23:36;16.10;99.90
51982;DHT22;37998;53.416;6.730;2022-07-29T03:26:02;16.00;99.90
51982;DHT22;37998;53.416;6.730;2022-07-29T03:28:27;16.10;99.90
51982;DHT22;37998;53.416;6.730;2022-07-29T03:30:54;16.10;99.90
51982;DHT22;37998;53.416;6.730;2022-07-29T03:33:20;16.10;99.90
51982;DHT22;37998;53.416;6.730;2022-07-29T03:35:45;16.10;99.90
51982;DHT22;37998;53.416;6.730;2022-07-29T03:38:11;16.10;99.90
51982;DHT22;37998;53.416;6.730;2022-07-29T03:41:07;16.10;99.90
51982;DHT22;37998;53.416;6.730;2022-07-29T03:43:36;16.10;99.90
51982;DHT22;37998;53.416;6.730;2022-07-29T03:46:04;16.00;99.90
51982;DHT22;37998;53.416;6.730;2022-07-29T03:48:33;16.00;99.90
51982;DHT22;37998;53.416;6.730;2022-07-29T03:51:00;16.10;99.90
51982;DHT22;37998;53.416;6.730;2022-07-29T03:53:26;16.10;99.90
51982;DHT22;37998;53.416;6.730;2022-07-29T03:55:56;16.00;99.90
51982;DHT22;37998;53.416;6.730;2022-07-29T03:58:23;16.10;99.90
51982;DHT22;37998;53.416;6.730;2022-07-29T04:00:52;16.10;99.90
51982;DHT22;37998;53.416;6.730;2022-07-29T04:03:18;16.10;99.90
51982;DHT22;37998;53.416;6.730;2022-07-29T04:05:44;16.10;99.90
51982;DHT22;37998;53.416;6.730;2022-07-29T04:08:09;16.10;99.90
51982;DHT22;37998;53.416;6.730;2022-07-29T04:10:35;16.10;99.90
51982;DHT22;37998;53.416;6.730;2022-07-29T04:13:00;16.10;99.90
51982;DHT22;37998;53.416;6.730;2022-07-29T04:15:26;15.10;99.90
51982;DHT22;37998;53.416;6.730;2022-07-29T04:17:54;16.10;99.90
51982;DHT22;37998;53.416;6.730;2022-07-29T04:20:20;16.10;99.90
51982;DHT22;37998;53.416;6.730;2022-07-29T04:22:45;16.20;99.90
51982;DHT22;37998;53.416;6.730;2022-07-29T04:25:11;16.10;99.90
51982;DHT22;37998;53.416;6.730;2022-07-29T04:27:36;16.20;99.90
51982;DHT22;37998;53.416;6.730;2022-07-29T04:30:22;16.20;99.90
51982;DHT22;37998;53.416;6.730;2022-07-29T04:32:47;16.20;99.90
51982;DHT22;37998;53.416;6.730;2022-07-29T04:35:13;16.20;99.90
51982;DHT22;37998;53.416;6.730;2022-07-29T04:37:39;16.20;99.90
51982;DHT22;37998;53.416;6.730;2022-07-29T04:40:05;16.20;99.90
51982;DHT22;37998;53.416;6.730;2022-07-29T04:42:31;16.20;99.90
51982;DHT22;37998;53.416;6.730;2022-07-29T04:44:56;16.20;99.90
51982;DHT22;37998;53.416;6.730;2022-07-29T04:47:22;16.20;99.90
51982;DHT22;37998;53.416;6.730;2022-07-29T04:49:47;16.30;99.90
51982;DHT22;37998;53.416;6.730;2022-07-29T04:52:13;16.30;99.90
51982;DHT22;37998;53.416;6.730;2022-07-29T04:54:39;16.40;99.90
51982;DHT22;37998;53.416;6.730;2022-07-29T04:57:04;16.30;99.90
51982;DHT22;37998;53.416;6.730;2022-07-29T04:59:30;16.40;99.90
51982;DHT22;37998;53.416;6.730;2022-07-29T05:01:55;16.40;99.90
51982;DHT22;37998;53.416;6.730;2022-07-29T05:04:21;16.40;99.90
51982;DHT22;37998;53.416;6.730;2022-07-29T05:06:47;16.40;99.90
51982;DHT22;37998;53.416;6.730;2022-07-29T05:09:13;16.40;99.90
51982;DHT22;37998;53.416;6.730;2022-07-29T05:11:38;16.40;99.90
51982;DHT22;37998;53.416;6.730;2022-07-29T05:14:04;16.40;99.90
51982;DHT22;37998;53.416;6.730;2022-07-29T05:16:30;16.40;99.90
51982;DHT22;37998;53.416;6.730;2022-07-29T05:18:55;16.40;99.90
51982;DHT22;37998;53.416;6.730;2022-07-29T05:21:21;16.50;99.90
51982;DHT22;37998;53.416;6.730;2022-07-29T05:23:47;16.50;99.90
51982;DHT22;37998;53.416;6.730;2022-07-29T05:26:12;16.50;99.90
51982;DHT22;37998;53.416;6.730;2022-07-29T05:28:38;16.50;99.90
51982;DHT22;37998;53.416;6.730;2022-07-29T05:31:03;16.50;99.90
51982;DHT22;37998;53.416;6.730;2022-07-29T05:33:29;16.50;99.90
51982;DHT22;37998;53.416;6.730;2022-07-29T05:35:55;16.40;99.90
51982;DHT22;37998;53.416;6.730;2022-07-29T05:38:21;16.40;99.90
51982;DHT22;37998;53.416;6.730;2022-07-29T05:40:46;16.40;99.90
51982;DHT22;37998;53.416;6.730;2022-07-29T05:43:12;16.40;99.90
51982;DHT22;37998;53.416;6.730;2022-07-29T05:45:38;16.50;99.90
51982;DHT22;37998;53.416;6.730;2022-07-29T05:48:04;16.40;99.90
51982;DHT22;37998;53.416;6.730;2022-07-29T05:50:30;16.50;99.90
51982;DHT22;37998;53.416;6.730;2022-07-29T05:52:55;16.40;99.90
51982;DHT22;37998;53.416;6.730;2022-07-29T05:55:21;16.50;99.90
51982;DHT22;37998;53.416;6.730;2022-07-29T05:57:46;16.50;99.90
51982;DHT22;37998;53.416;6.730;2022-07-29T06:00:12;16.50;99.90
51982;DHT22;37998;53.416;6.730;2022-07-29T06:02:38;16.50;99.90
51982;DHT22;37998;53.416;6.730;2022-07-29T06:05:04;16.60;99.90
51982;DHT22;37998;53.416;6.730;2022-07-29T06:07:29;16.60;99.90
51982;DHT22;37998;53.416;6.730;2022-07-29T06:09:56;16.60;99.90
51982;DHT22;37998;53.416;6.730;2022-07-29T06:12:21;16.70;99.90
51982;DHT22;37998;53.416;6.730;2022-07-29T06:14:47;16.60;99.90
51982;DHT22;37998;53.416;6.730;2022-07-29T06:17:12;16.70;99.90
51982;DHT22;37998;53.416;6.730;2022-07-29T06:19:38;16.70;99.90
51982;DHT22;37998;53.416;6.730;2022-07-29T06:22:04;16.80;99.90
51982;DHT22;37998;53.416;6.730;2022-07-29T06:24:30;16.80;99.90
51982;DHT22;37998;53.416;6.730;2022-07-29T06:26:56;16.90;99.90
51982;DHT22;37998;53.416;6.730;2022-07-29T06:29:21;16.90;99.90
51982;DHT22;37998;53.416;6.730;2022-07-29T06:31:47;17.00;99.90
51982;DHT22;37998;53.416;6.730;2022-07-29T06:34:12;17.00;99.90
51982;DHT22;37998;53.416;6.730;2022-07-29T06:36:38;17.10;99.90
51982;DHT22;37998;53.416;6.730;2022-07-29T06:39:08;17.20;99.90
51982;DHT22;37998;53.416;6.730;2022-07-29T06:41:33;17.20;99.90
51982;DHT22;37998;53.416;6.730;2022-07-29T06:43:59;17.30;99.90
51982;DHT22;37998;53.416;6.730;2022-07-29T06:46:25;17.30;99.90
51982;DHT22;37998;53.416;6.730;2022-07-29T06:48:51;17.30;99.90
51982;DHT22;37998;53.416;6.730;2022-07-29T06:51:17;17.30;99.90
51982;DHT22;37998;53.416;6.730;2022-07-29T06:53:43;17.40;99.90
51982;DHT22;37998;53.416;6.730;2022-07-29T06:56:09;17.40;99.90
51982;DHT22;37998;53.416;6.730;2022-07-29T06:58:36;17.40;99.90
51982;DHT22;37998;53.416;6.730;2022-07-29T07:01:03;17.50;99.90
51982;DHT22;37998;53.416;6.730;2022-07-29T07:03:29;17.60;99.90
51982;DHT22;37998;53.416;6.730;2022-07-29T07:05:55;17.70;99.90
51982;DHT22;37998;53.416;6.730;2022-07-29T07:08:21;17.70;99.90
51982;DHT22;37998;53.416;6.730;2022-07-29T07:10:48;17.70;99.90
51982;DHT22;37998;53.416;6.730;2022-07-29T07:13:14;17.80;99.90
51982;DHT22;37998;53.416;6.730;2022-07-29T07:15:40;17.80;99.90
51982;DHT22;37998;53.416;6.730;2022-07-29T07:18:06;17.90;99.90
51982;DHT22;37998;53.416;6.730;2022-07-29T07:20:33;17.90;99.90
51982;DHT22;37998;53.416;6.730;2022-07-29T07:22:59;18.00;99.90
51982;DHT22;37998;53.416;6.730;2022-07-29T07:25:24;18.00;99.90
51982;DHT22;37998;53.416;6.730;2022-07-29T07:27:50;18.00;99.90
51982;DHT22;37998;53.416;6.730;2022-07-29T07:30:16;18.10;99.90
51982;DHT22;37998;53.416;6.730;2022-07-29T07:32:42;18.20;99.90
51982;DHT22;37998;53.416;6.730;2022-07-29T07:35:08;18.20;99.90
51982;DHT22;37998;53.416;6.730;2022-07-29T07:37:34;18.20;99.80
51982;DHT22;37998;53.416;6.730;2022-07-29T07:40:01;18.20;99.80
51982;DHT22;37998;53.416;6.730;2022-07-29T07:42:26;18.30;99.70
51982;DHT22;37998;53.416;6.730;2022-07-29T07:44:52;18.40;99.60
51982;DHT22;37998;53.416;6.730;2022-07-29T07:47:18;18.50;99.50
51982;DHT22;37998;53.416;6.730;2022-07-29T07:49:49;18.50;99.50
51982;DHT22;37998;53.416;6.730;2022-07-29T07:52:16;18.60;99.40
51982;DHT22;37998;53.416;6.730;2022-07-29T07:54:42;18.60;99.50
51982;DHT22;37998;53.416;6.730;2022-07-29T07:57:09;18.70;99.50
51982;DHT22;37998;53.416;6.730;2022-07-29T07:59:35;18.80;99.40
51982;DHT22;37998;53.416;6.730;2022-07-29T08:02:00;18.80;99.50
51982;DHT22;37998;53.416;6.730;2022-07-29T08:04:26;18.70;99.20
51982;DHT22;37998;53.416;6.730;2022-07-29T08:06:52;18.80;99.30
51982;DHT22;37998;53.416;6.730;2022-07-29T08:09:20;18.80;99.20
51982;DHT22;37998;53.416;6.730;2022-07-29T08:11:46;18.90;99.20
51982;DHT22;37998;53.416;6.730;2022-07-29T08:14:12;18.80;99.10
51982;DHT22;37998;53.416;6.730;2022-07-29T08:16:39;18.80;99.00
51982;DHT22;37998;53.416;6.730;2022-07-29T08:19:05;18.90;98.90
51982;DHT22;37998;53.416;6.730;2022-07-29T08:21:31;19.00;98.80
51982;DHT22;37998;53.416;6.730;2022-07-29T08:23:57;19.00;98.80
51982;DHT22;37998;53.416;6.730;2022-07-29T08:26:42;19.00;98.70
51982;DHT22;37998;53.416;6.730;2022-07-29T08:29:09;19.00;98.80
51982;DHT22;37998;53.416;6.730;2022-07-29T08:31:38;19.00;98.80
51982;DHT22;37998;53.416;6.730;2022-07-29T08:34:05;19.10;98.40
51982;DHT22;37998;53.416;6.730;2022-07-29T08:36:31;19.10;98.40
51982;DHT22;37998;53.416;6.730;2022-07-29T08:38:58;19.20;98.40
51982;DHT22;37998;53.416;6.730;2022-07-29T08:41:24;19.20;98.10
51982;DHT22;37998;53.416;6.730;2022-07-29T08:43:50;19.30;98.20
51982;DHT22;37998;53.416;6.730;2022-07-29T08:46:16;19.40;98.10
51982;DHT22;37998;53.416;6.730;2022-07-29T08:48:43;19.40;98.00
51982;DHT22;37998;53.416;6.730;2022-07-29T08:51:13;19.50;97.70
51982;DHT22;37998;53.416;6.730;2022-07-29T08:53:42;19.60;97.60
51982;DHT22;37998;53.416;6.730;2022-07-29T08:56:12;19.60;97.40
51982;DHT22;37998;53.416;6.730;2022-07-29T08:58:39;19.80;97.20
51982;DHT22;37998;53.416;6.730;2022-07-29T09:01:05;19.90;97.00
51982;DHT22;37998;53.416;6.730;2022-07-29T09:03:34;20.00;96.70
51982;DHT22;37998;53.416;6.730;2022-07-29T09:06:02;20.10;96.50
51982;DHT22;37998;53.416;6.730;2022-07-29T09:08:28;20.10;96.10
51982;DHT22;37998;53.416;6.730;2022-07-29T09:10:54;20.20;96.10
51982;DHT22;37998;53.416;6.730;2022-07-29T09:13:21;20.30;96.10
51982;DHT22;37998;53.416;6.730;2022-07-29T09:15:47;20.30;95.80
51982;DHT22;37998;53.416;6.730;2022-07-29T09:21:02;20.30;95.00
51982;DHT22;37998;53.416;6.730;2022-07-29T09:24:19;20.40;95.30
51982;DHT22;37998;53.416;6.730;2022-07-29T09:26:46;20.50;95.10
51982;DHT22;37998;53.416;6.730;2022-07-29T09:29:20;20.50;94.90
51982;DHT22;37998;53.416;6.730;2022-07-29T09:31:48;20.50;94.60
51982;DHT22;37998;53.416;6.730;2022-07-29T09:34:16;20.50;94.80
51982;DHT22;37998;53.416;6.730;2022-07-29T09:36:47;20.50;94.80
51982;DHT22;37998;53.416;6.730;2022-07-29T09:39:14;20.60;94.90
51982;DHT22;37998;53.416;6.730;2022-07-29T09:41:53;20.60;94.50
51982;DHT22;37998;53.416;6.730;2022-07-29T09:44:20;20.60;94.00
51982;DHT22;37998;53.416;6.730;2022-07-29T09:47:06;20.50;94.30
51982;DHT22;37998;53.416;6.730;2022-07-29T09:49:34;20.50;94.10
51982;DHT22;37998;53.416;6.730;2022-07-29T09:52:09;20.50;94.30
51982;DHT22;37998;53.416;6.730;2022-07-29T09:54:37;20.50;94.20
51982;DHT22;37998;53.416;6.730;2022-07-29T09:57:21;20.50;94.30
51982;DHT22;37998;53.416;6.730;2022-07-29T10:00:07;20.40;94.30
51982;DHT22;37998;53.416;6.730;2022-07-29T10:02:35;20.40;94.40
51982;DHT22;37998;53.416;6.730;2022-07-29T10:05:02;20.50;94.60
51982;DHT22;37998;53.416;6.730;2022-07-29T10:07:53;20.50;94.50
51982;DHT22;37998;53.416;6.730;2022-07-29T10:10:24;20.60;94.50
51982;DHT22;37998;53.416;6.730;2022-07-29T10:12:52;20.50;94.70
51982;DHT22;37998;53.416;6.730;2022-07-29T10:15:18;20.60;94.60
51982;DHT22;37998;53.416;6.730;2022-07-29T10:17:45;20.60;94.50
51982;DHT22;37998;53.416;6.730;2022-07-29T10:20:10;20.70;94.70
51982;DHT22;37998;53.416;6.730;2022-07-29T10:22:37;20.80;94.50
51982;DHT22;37998;53.416;6.730;2022-07-29T10:25:03;20.80;94.10
51982;DHT22;37998;53.416;6.730;2022-07-29T10:27:29;20.90;94.00
51982;DHT22;37998;53.416;6.730;2022-07-29T10:29:54;21.00;93.90
51982;DHT22;37998;53.416;6.730;2022-07-29T10:37:46;21.30;93.50
51982;DHT22;37998;53.416;6.730;2022-07-29T10:40:36;21.40;93.60
51982;DHT22;37998;53.416;6.730;2022-07-29T10:43:27;21.50;92.90
51982;DHT22;37998;53.416;6.730;2022-07-29T10:45:58;21.60;92.80
51982;DHT22;37998;53.416;6.730;2022-07-29T10:48:25;21.60;92.50
51982;DHT22;37998;53.416;6.730;2022-07-29T10:51:00;21.60;92.60
51982;DHT22;37998;53.416;6.730;2022-07-29T10:53:50;21.50;92.60
51982;DHT22;37998;53.416;6.730;2022-07-29T10:56:30;21.50;92.60
51982;DHT22;37998;53.416;6.730;2022-07-29T11:01:47;21.40;93.00
51982;DHT22;37998;53.416;6.730;2022-07-29T11:04:13;21.40;93.20
51982;DHT22;37998;53.416;6.730;2022-07-29T11:09:29;21.40;93.20
51982;DHT22;37998;53.416;6.730;2022-07-29T11:11:56;21.30;93.40
51982;DHT22;37998;53.416;6.730;2022-07-29T11:17:17;21.30;93.40
51982;DHT22;37998;53.416;6.730;2022-07-29T11:19:43;21.30;93.60
51982;DHT22;37998;53.416;6.730;2022-07-29T11:22:10;21.40;93.70
51982;DHT22;37998;53.416;6.730;2022-07-29T11:24:37;21.40;93.60
51982;DHT22;37998;53.416;6.730;2022-07-29T11:27:17;21.30;93.50
51982;DHT22;37998;53.416;6.730;2022-07-29T11:29:54;21.30;93.30
51982;DHT22;37998;53.416;6.730;2022-07-29T11:32:21;21.30;93.50
51982;DHT22;37998;53.416;6.730;2022-07-29T11:34:48;21.30;93.50
51982;DHT22;37998;53.416;6.730;2022-07-29T11:37:15;21.40;93.70
51982;DHT22;37998;53.416;6.730;2022-07-29T11:44:56;21.50;93.20
51982;DHT22;37998;53.416;6.730;2022-07-29T11:47:22;21.50;93.20
51982;DHT22;37998;53.416;6.730;2022-07-29T11:49:50;21.50;93.20
51982;DHT22;37998;53.416;6.730;2022-07-29T11:52:19;22.20;93.20
51982;DHT22;37998;53.416;6.730;2022-07-29T11:54:48;21.50;92.90
51982;DHT22;37998;53.416;6.730;2022-07-29T11:57:16;21.60;92.80
51982;DHT22;37998;53.416;6.730;2022-07-29T11:59:44;21.60;92.60
51982;DHT22;37998;53.416;6.730;2022-07-29T12:02:10;21.60;92.50
51982;DHT22;37998;53.416;6.730;2022-07-29T12:04:56;21.60;92.30
51982;DHT22;37998;53.416;6.730;2022-07-29T12:07:29;21.70;92.10
51982;DHT22;37998;53.416;6.730;2022-07-29T12:09:55;21.70;92.30
51982;DHT22;37998;53.416;6.730;2022-07-29T12:12:21;21.80;92.60
51982;DHT22;37998;53.416;6.730;2022-07-29T12:14:48;21.90;92.50
51982;DHT22;37998;53.416;6.730;2022-07-29T12:19:57;22.10;92.30
51982;DHT22;37998;53.416;6.730;2022-07-29T12:22:34;22.20;92.40
51982;DHT22;37998;53.416;6.730;2022-07-29T12:25:04;22.40;92.40
51982;DHT22;37998;53.416;6.730;2022-07-29T12:27:31;22.60;92.40
51982;DHT22;37998;53.416;6.730;2022-07-29T12:30:00;22.70;91.70
51982;DHT22;37998;53.416;6.730;2022-07-29T12:32:37;22.80;91.50
51982;DHT22;37998;53.416;6.730;2022-07-29T12:35:17;22.90;91.00
51982;DHT22;37998;53.416;6.730;2022-07-29T12:37:45;23.10;91.00
51982;DHT22;37998;53.416;6.730;2022-07-29T12:40:15;23.20;91.00
51982;DHT22;37998;53.416;6.730;2022-07-29T12:45:30;23.30;90.20
51982;DHT22;37998;53.416;6.730;2022-07-29T12:47:56;23.30;90.30
51982;DHT22;37998;53.416;6.730;2022-07-29T12:50:22;23.40;90.00
51982;DHT22;37998;53.416;6.730;2022-07-29T12:52:47;23.40;89.80
51982;DHT22;37998;53.416;6.730;2022-07-29T12:55:14;23.50;89.40
51982;DHT22;37998;53.416;6.730;2022-07-29T12:57:50;23.60;89.00
51982;DHT22;37998;53.416;6.730;2022-07-29T13:00:22;23.80;87.70
51982;DHT22;37998;53.416;6.730;2022-07-29T13:02:55;23.90;87.60
51982;DHT22;37998;53.416;6.730;2022-07-29T13:05:21;24.00;87.60
51982;DHT22;37998;53.416;6.730;2022-07-29T13:07:47;24.00;87.30
51982;DHT22;37998;53.416;6.730;2022-07-29T13:10:15;24.00;87.20
51982;DHT22;37998;53.416;6.730;2022-07-29T13:15:30;23.90;86.70
51982;DHT22;37998;53.416;6.730;2022-07-29T13:17:56;23.80;87.00
51982;DHT22;37998;53.416;6.730;2022-07-29T13:20:28;23.80;87.00
51982;DHT22;37998;53.416;6.730;2022-07-29T13:22:56;23.80;86.80
51982;DHT22;37998;53.416;6.730;2022-07-29T13:25:30;23.70;87.10
51982;DHT22;37998;53.416;6.730;2022-07-29T13:27:58;23.70;87.00
51982;DHT22;37998;53.416;6.730;2022-07-29T13:30:24;23.60;87.60
51982;DHT22;37998;53.416;6.730;2022-07-29T13:32:51;23.60;87.20
51982;DHT22;37998;53.416;6.730;2022-07-29T13:35:18;23.50;87.00
51982;DHT22;37998;53.416;6.730;2022-07-29T13:37:45;23.50;87.20
51982;DHT22;37998;53.416;6.730;2022-07-29T13:40:11;23.50;87.50
51982;DHT22;37998;53.416;6.730;2022-07-29T13:42:38;23.40;87.90
51982;DHT22;37998;53.416;6.730;2022-07-29T13:45:05;24.30;88.90
51982;DHT22;37998;53.416;6.730;2022-07-29T13:47:32;23.40;88.60
51982;DHT22;37998;53.416;6.730;2022-07-29T13:49:57;23.30;88.70
51982;DHT22;37998;53.416;6.730;2022-07-29T13:52:23;23.30;88.70
51982;DHT22;37998;53.416;6.730;2022-07-29T13:54:49;23.30;88.80
51982;DHT22;37998;53.416;6.730;2022-07-29T13:57:14;23.30;89.00
51982;DHT22;37998;53.416;6.730;2022-07-29T13:59:41;23.30;89.10
51982;DHT22;37998;53.416;6.730;2022-07-29T14:02:08;23.30;89.00
51982;DHT22;37998;53.416;6.730;2022-07-29T14:04:34;23.40;89.00
51982;DHT22;37998;53.416;6.730;2022-07-29T14:06:59;23.40;89.10
51982;DHT22;37998;53.416;6.730;2022-07-29T14:09:25;23.50;89.60
51982;DHT22;37998;53.416;6.730;2022-07-29T14:11:51;23.60;89.70
51982;DHT22;37998;53.416;6.730;2022-07-29T14:14:18;23.70;89.20
51982;DHT22;37998;53.416;6.730;2022-07-29T14:16:44;23.90;88.60
51982;DHT22;37998;53.416;6.730;2022-07-29T14:19:10;24.10;88.10
51982;DHT22;37998;53.416;6.730;2022-07-29T14:21:37;24.40;87.70
51982;DHT22;37998;53.416;6.730;2022-07-29T14:24:03;24.60;87.20
51982;DHT22;37998;53.416;6.730;2022-07-29T14:26:29;24.70;86.70
51982;DHT22;37998;53.416;6.730;2022-07-29T14:28:54;24.90;86.70
51982;DHT22;37998;53.416;6.730;2022-07-29T14:31:20;24.90;86.50
51982;DHT22;37998;53.416;6.730;2022-07-29T14:33:46;24.80;86.60
51982;DHT22;37998;53.416;6.730;2022-07-29T14:36:11;24.80;86.20
51982;DHT22;37998;53.416;6.730;2022-07-29T14:38:37;24.70;86.40
51982;DHT22;37998;53.416;6.730;2022-07-29T14:41:04;24.70;86.40
51982;DHT22;37998;53.416;6.730;2022-07-29T14:43:30;24.70;86.20
51982;DHT22;37998;53.416;6.730;2022-07-29T14:45:56;24.80;86.90
51982;DHT22;37998;53.416;6.730;2022-07-29T14:48:21;24.80;86.80
51982;DHT22;37998;53.416;6.730;2022-07-29T14:50:47;24.90;86.00
51982;DHT22;37998;53.416;6.730;2022-07-29T14:53:13;24.90;86.00
51982;DHT22;37998;53.416;6.730;2022-07-29T14:55:39;25.00;86.10
51982;DHT22;37998;53.416;6.730;2022-07-29T14:58:05;25.00;85.50
51982;DHT22;37998;53.416;6.730;2022-07-29T15:00:31;25.10;85.10
51982;DHT22;37998;53.416;6.730;2022-07-29T15:03:00;25.00;85.00
51982;DHT22;37998;53.416;6.730;2022-07-29T15:05:26;24.90;84.70
51982;DHT22;37998;53.416;6.730;2022-07-29T15:07:52;24.90;84.80
51982;DHT22;37998;53.416;6.730;2022-07-29T15:10:18;24.80;85.00
51982;DHT22;37998;53.416;6.730;2022-07-29T15:12:43;24.70;85.00
51982;DHT22;37998;53.416;6.730;2022-07-29T15:15:09;24.60;85.30
51982;DHT22;37998;53.416;6.730;2022-07-29T15:17:35;24.50;85.10
51982;DHT22;37998;53.416;6.730;2022-07-29T15:20:00;24.40;85.00
51982;DHT22;37998;53.416;6.730;2022-07-29T15:22:26;24.40;84.60
51982;DHT22;37998;53.416;6.730;2022-07-29T15:24:52;24.30;84.50
51982;DHT22;37998;53.416;6.730;2022-07-29T15:27:18;24.20;84.30
51982;DHT22;37998;53.416;6.730;2022-07-29T15:29:44;24.10;84.10
51982;DHT22;37998;53.416;6.730;2022-07-29T15:32:10;24.10;84.20
51982;DHT22;37998;53.416;6.730;2022-07-29T15:34:36;24.00;84.30
51982;DHT22;37998;53.416;6.730;2022-07-29T15:37:02;24.00;84.60
51982;DHT22;37998;53.416;6.730;2022-07-29T15:39:28;23.90;84.80
51982;DHT22;37998;53.416;6.730;2022-07-29T15:41:53;23.80;84.80
51982;DHT22;37998;53.416;6.730;2022-07-29T15:44:19;23.90;85.10
51982;DHT22;37998;53.416;6.730;2022-07-29T15:46:45;23.80;85.10
51982;DHT22;37998;53.416;6.730;2022-07-29T15:49:34;23.80;85.10
51982;DHT22;37998;53.416;6.730;2022-07-29T15:52:02;23.70;85.50
51982;DHT22;37998;53.416;6.730;2022-07-29T15:54:29;23.60;85.70
51982;DHT22;37998;53.416;6.730;2022-07-29T15:56:55;23.60;85.90
51982;DHT22;37998;53.416;6.730;2022-07-29T15:59:21;23.60;86.00
51982;DHT22;37998;53.416;6.730;2022-07-29T16:01:47;23.60;86.30
51982;DHT22;37998;53.416;6.730;2022-07-29T16:04:12;23.60;86.90
51982;DHT22;37998;53.416;6.730;2022-07-29T16:06:38;23.50;87.00
51982;DHT22;37998;53.416;6.730;2022-07-29T16:09:04;23.50;87.40
51982;DHT22;37998;53.416;6.730;2022-07-29T16:11:30;23.60;87.80
51982;DHT22;37998;53.416;6.730;2022-07-29T16:13:55;23.60;87.90